Acorn Park, Oregon
Current Conditions -  °F | °C
As of 2:40 AM on Thursday 23 Oct 2014 (Local Time) from KEUG Reporting Station
Broken Clouds Broken Clouds  
Wind Chill: 57°   Ceiling: 2500
Heat Index: 57°   Visibility: 10mi
Dew Point: 54°   Wind: 8mph
Humidity: 89%   Direction: 160°SSE
Pressure: 29.8"   Gusts: NA
Location:  44.0318°N, 123.235°W
Report Text: KEUG 230940Z AUTO 16007KT 10SM BKN025 BKN030 14/12 A2980 RMK AO2 RAB26E35 P0000 T01390122
Loading
Personal Weather Stations






























Interactive Weather Map New forecast layout! Learn more

10-Day Weather Forecast

Advertisements
Track Severe Weather on mobile